• Join FlightAware (Why Join?)
  • Login
  • US Flag 
09:42AM EDT


 

Airport Tracker/Info


-or-


 

Live Flight TrackerFlight Track Log ✈ N678MB ✈ 23-Apr-2013 ✈ KGAI - KOXB

Flight Track Log - Related Links

Times and Time Zones

All times are in EDT time to prevent confusion due to time zone crossing. See the N678MB flight status page for this flight to view local times or setup timezone preferences in your user account.

Time Position Orientation Groundspeed Altitude Reporting Facility
EDT Latitude Longitude Course Direction KTS MPH feet Rate Location/Type
06:28PM 39.1500 -77.1333 109° East 157 181 1,800  Level Potomac TRACON
06:29PM 39.1833 -77.1000 38° Northeast 241 277 3,400 1,680 Climbing Potomac TRACON
06:30PM 39.2500 -77.1000 360° North 263 303 5,200 1,740 Climbing Potomac TRACON
06:31PM 39.3000 -77.0167 52° Northeast 262 302 7,000 1,380 Climbing Potomac TRACON
06:32PM 39.3167 -76.9167 78° East 276 318 8,100 960 Climbing Potomac TRACON
06:33PM 39.3167 -76.8333 90° East 299 344 9,000 420 Climbing Potomac TRACON
06:34PM 39.0743 -76.8526 109° East  Level FlightAware Approximate
06:34PM 39.2500 -76.7500 136° Southeast 285 328 9,000  Level Potomac TRACON
06:35PM 39.2000 -76.6833 134° Southeast 286 329 9,000  Level Potomac TRACON
06:36PM 39.1333 -76.6000 136° Southeast 280 322 9,000  Level Potomac TRACON
06:37PM 39.0833 -76.5167 128° Southeast 290 334 9,000 -60 Level Potomac TRACON
06:38PM 39.0333 -76.4333 128° Southeast 291 335 8,900 -600 Descending Potomac TRACON
06:39PM 38.9667 -76.3667 142° Southeast 282 325 7,900 -1,020 Descending Potomac TRACON
06:40PM 38.9217 -76.3042 133° Southeast 287 330 7,000 -480 Descending Washington Center
06:41PM 38.8700 -76.2289 131° Southeast 287 330 7,000  Level Washington Center
06:42PM 38.8244 -76.1567 129° Southeast 293 337 7,000  Level Washington Center
06:43PM 38.7706 -76.0817 133° Southeast 293 337 7,000 -60 Level Washington Center
06:44PM 38.7125 -76.0067 135° Southeast 293 337 6,900  Descending Washington Center
06:45PM 38.6586 -75.9319 133° Southeast 293 337 7,000  Climbing Washington Center
06:46PM 38.6025 -75.8572 134° Southeast 288 331 7,000  Level Washington Center
06:47PM 38.5461 -75.7800 133° Southeast 288 331 7,000  Level Washington Center
06:48PM 38.4922 -75.7083 134° Southeast 288 331 7,000 -780 Level Washington Center
06:49PM 38.4381 -75.6342 133° Southeast 288 331 5,500 -1,380 Descending Washington Center
06:50PM 38.3753 -75.5572 136° Southeast 288 331 4,300 -180 Descending Washington Center
06:52PM 38.3333 -75.4717 90° East  Level FlightAware Approximate
06:53PM 38.2375 -75.3828 90° East 288 331 5,000  Level Washington Center
06:54PM 38.2375 -75.3828 90° East 288 331 5,000  Level Washington Center